createdAt,value
2023-01-20T00:01:47.786Z,5.97
2023-01-20T00:04:19.201Z,5.77
2023-01-20T00:06:47.714Z,5.73
2023-01-20T00:09:17.545Z,6.07
2023-01-20T00:11:45.974Z,7.20
2023-01-20T00:14:14.181Z,7.50
2023-01-20T00:16:42.131Z,7.03
2023-01-20T00:19:14.666Z,6.70
2023-01-20T00:21:43.094Z,7.63
2023-01-20T00:24:10.820Z,6.77
2023-01-20T00:26:38.539Z,6.10
2023-01-20T00:29:06.620Z,6.80
2023-01-20T00:31:36.207Z,6.13
2023-01-20T00:34:04.112Z,6.20
2023-01-20T00:36:32.787Z,5.47
2023-01-20T00:39:02.791Z,5.80
2023-01-20T00:41:30.757Z,5.67
2023-01-20T00:43:58.477Z,5.27
2023-01-20T00:46:26.592Z,4.93
2023-01-20T00:48:54.302Z,5.03
2023-01-20T00:51:22.122Z,5.27
2023-01-20T00:53:49.851Z,5.40
2023-01-20T00:56:17.570Z,5.83
2023-01-20T00:58:45.413Z,5.60
2023-01-20T01:01:13.840Z,5.37
2023-01-20T01:03:41.574Z,5.60
2023-01-20T01:06:16.151Z,5.67
2023-01-20T01:08:44.828Z,5.70
2023-01-20T01:11:13.704Z,5.57
2023-01-20T01:13:41.946Z,6.30
2023-01-20T01:16:15.250Z,6.17
2023-01-20T01:18:43.760Z,6.10
2023-01-20T01:21:15.187Z,6.10
2023-01-20T01:23:44.001Z,5.93
2023-01-20T01:26:12.204Z,6.13
2023-01-20T01:28:40.292Z,5.23
2023-01-20T01:31:09.174Z,5.03
2023-01-20T01:33:37.286Z,5.30
2023-01-20T01:36:06.199Z,5.63
2023-01-20T01:38:34.303Z,6.40
2023-01-20T01:41:02.257Z,7.37
2023-01-20T01:43:34.294Z,7.17
2023-01-20T01:46:03.507Z,9.10
2023-01-20T01:48:45.472Z,9.43
2023-01-20T01:51:21.709Z,8.80
2023-01-20T01:54:05.263Z,7.43
2023-01-20T01:56:33.945Z,6.30
2023-01-20T01:59:03.353Z,5.90
2023-01-20T02:01:36.661Z,5.87
2023-01-20T02:04:14.390Z,5.73
2023-01-20T02:06:47.035Z,6.90
2023-01-20T02:09:14.997Z,5.97
2023-01-20T02:11:53.044Z,6.20
2023-01-20T02:14:27.248Z,6.00
2023-01-20T02:17:32.897Z,6.17
2023-01-20T02:20:34.699Z,5.97
2023-01-20T02:23:42.133Z,5.43
2023-01-20T02:27:11.298Z,5.77
2023-01-20T02:30:11.296Z,6.17
2023-01-20T02:33:13.097Z,5.13
2023-01-20T02:35:51.625Z,5.27
2023-01-20T02:39:03.143Z,5.63
2023-01-20T02:42:10.106Z,5.20
2023-01-20T02:44:50.791Z,6.27
2023-01-20T02:47:28.591Z,5.03
2023-01-20T02:50:09.527Z,5.43
2023-01-20T02:52:43.476Z,5.30
2023-01-20T02:57:54.998Z,4.17
2023-01-20T03:00:33.187Z,5.07
2023-01-20T03:03:05.941Z,5.40
2023-01-20T03:05:40.531Z,5.47
2023-01-20T03:08:11.933Z,5.47
2023-01-20T03:10:42.414Z,5.07
2023-01-20T03:13:31.270Z,6.23
2023-01-20T03:16:07.860Z,5.23
2023-01-20T03:18:38.223Z,5.00
2023-01-20T03:21:08.707Z,5.87
2023-01-20T03:23:41.714Z,5.50
2023-01-20T03:26:13.027Z,5.67
2023-01-20T03:28:44.596Z,5.57
2023-01-20T03:31:35.008Z,5.97
2023-01-20T03:34:11.045Z,5.50
2023-01-20T03:36:41.985Z,5.97
2023-01-20T03:39:10.286Z,5.70
2023-01-20T03:42:02.728Z,5.70
2023-01-20T03:45:23.610Z,7.27
2023-01-20T03:48:18.817Z,5.37
2023-01-20T03:51:03.822Z,5.83
2023-01-20T03:54:01.565Z,5.60
2023-01-20T03:57:04.122Z,5.17
2023-01-20T03:59:36.700Z,4.77
2023-01-20T04:02:07.915Z,6.10
2023-01-20T04:04:39.705Z,6.73
2023-01-20T04:07:12.486Z,5.83
2023-01-20T04:09:47.763Z,5.77
2023-01-20T04:12:15.484Z,5.80
2023-01-20T04:14:43.321Z,5.63
2023-01-20T04:17:11.757Z,5.53
2023-01-20T04:19:39.479Z,5.27
2023-01-20T04:22:33.971Z,4.93
2023-01-20T04:25:31.096Z,5.15
2023-01-20T04:27:59.181Z,4.67
2023-01-20T04:30:26.934Z,5.30
2023-01-20T04:32:54.612Z,5.30
2023-01-20T04:35:22.579Z,5.77
2023-01-20T04:37:50.296Z,5.97
2023-01-20T04:40:18.377Z,6.13
2023-01-20T04:42:46.101Z,5.73
2023-01-20T04:45:17.875Z,7.00
2023-01-20T04:47:45.762Z,7.43
2023-01-20T04:50:15.153Z,7.77
2023-01-20T04:52:43.357Z,6.87
2023-01-20T04:55:11.806Z,5.90
2023-01-20T04:57:40.240Z,6.47
2023-01-20T05:00:09.043Z,6.50
2023-01-20T05:02:36.780Z,7.30
2023-01-20T05:05:04.963Z,7.47
2023-01-20T05:07:34.725Z,7.50
2023-01-20T05:10:02.578Z,6.47
2023-01-20T05:12:30.415Z,7.07
2023-01-20T05:14:58.131Z,6.43
2023-01-20T05:17:25.860Z,5.53
2023-01-20T05:19:53.575Z,5.80
2023-01-20T05:22:21.297Z,6.07
2023-01-20T05:24:49.042Z,6.33
2023-01-20T05:27:16.745Z,5.70
2023-01-20T05:29:44.473Z,6.10
2023-01-20T05:32:12.190Z,6.30
2023-01-20T05:34:39.910Z,7.20
2023-01-20T05:37:07.637Z,5.43
2023-01-20T05:39:35.353Z,6.97
2023-01-20T05:42:03.676Z,5.20
2023-01-20T05:44:31.398Z,6.73
2023-01-20T05:46:59.122Z,6.80
2023-01-20T05:49:26.846Z,5.90
2023-01-20T05:51:54.581Z,5.63
2023-01-20T05:54:22.306Z,6.30
2023-01-20T05:56:50.022Z,6.80
2023-01-20T05:59:18.098Z,6.60
2023-01-20T06:01:45.942Z,6.13
2023-01-20T06:04:13.659Z,6.83
2023-01-20T06:06:41.502Z,5.93
2023-01-20T06:09:11.024Z,6.60
2023-01-20T06:11:38.767Z,6.97
2023-01-20T06:14:06.470Z,7.13
2023-01-20T06:16:34.308Z,6.23
2023-01-20T06:19:02.153Z,7.33
2023-01-20T06:21:29.881Z,6.67
2023-01-20T06:23:57.605Z,7.37
2023-01-20T06:26:25.318Z,6.20
2023-01-20T06:28:53.043Z,6.13
2023-01-20T06:31:20.831Z,6.57
2023-01-20T06:33:48.616Z,6.90
2023-01-20T06:36:17.749Z,6.30
2023-01-20T06:38:50.711Z,6.03
2023-01-20T06:41:20.320Z,6.33
2023-01-20T06:43:50.177Z,6.50
2023-01-20T06:46:18.062Z,5.77
2023-01-20T06:48:46.348Z,6.43
2023-01-20T06:51:18.868Z,6.57
2023-01-20T06:53:47.672Z,6.47
2023-01-20T06:56:16.115Z,6.63
2023-01-20T06:58:44.817Z,7.23
2023-01-20T07:01:21.023Z,7.80
2023-01-20T07:03:48.759Z,7.83
2023-01-20T07:06:39.542Z,7.47
2023-01-20T07:09:10.971Z,6.67
2023-01-20T07:11:39.659Z,5.93
2023-01-20T07:14:08.445Z,6.07
2023-01-20T07:16:36.970Z,6.17
2023-01-20T07:19:04.967Z,6.57
2023-01-20T07:21:32.707Z,6.43
2023-01-20T07:24:01.975Z,6.53
2023-01-20T07:26:30.178Z,6.97
2023-01-20T07:29:01.022Z,7.13
2023-01-20T07:31:31.599Z,11.13
2023-01-20T07:34:00.196Z,12.77
2023-01-20T07:36:28.265Z,13.07
2023-01-20T07:38:56.109Z,14.07
2023-01-20T07:41:23.873Z,10.60
2023-01-20T07:43:53.238Z,10.43
2023-01-20T07:46:21.689Z,9.00
2023-01-20T07:48:49.537Z,7.27
2023-01-20T07:51:18.081Z,7.07
2023-01-20T07:53:49.762Z,6.87
2023-01-20T07:56:26.730Z,6.57
2023-01-20T07:58:55.889Z,6.83
2023-01-20T08:01:30.669Z,7.20
2023-01-20T08:04:03.095Z,8.33
2023-01-20T08:06:31.295Z,7.37
2023-01-20T08:09:03.225Z,7.17
2023-01-20T08:11:32.340Z,5.93
2023-01-20T08:14:00.109Z,6.90
2023-01-20T08:16:27.840Z,5.37
2023-01-20T08:18:55.823Z,5.37
2023-01-20T08:21:27.951Z,6.53
2023-01-20T08:23:57.263Z,6.63
2023-01-20T08:26:27.374Z,8.30
2023-01-20T08:29:00.964Z,7.57
2023-01-20T08:31:28.743Z,6.40
2023-01-20T08:33:57.376Z,6.00
2023-01-20T08:36:30.604Z,7.83
2023-01-20T08:39:02.566Z,6.78
2023-01-20T08:41:36.127Z,6.03
2023-01-20T08:44:08.068Z,5.82
2023-01-20T08:46:39.849Z,5.10
2023-01-20T08:49:17.656Z,5.57
2023-01-20T08:51:45.860Z,4.60
2023-01-20T08:54:15.152Z,6.00
2023-01-20T08:56:43.472Z,5.00
2023-01-20T08:59:11.186Z,4.80
2023-01-20T09:01:39.076Z,5.00
2023-01-20T09:04:07.781Z,6.17
2023-01-20T09:06:53.797Z,5.53
2023-01-20T09:09:22.731Z,6.83
2023-01-20T09:11:53.453Z,6.90
2023-01-20T09:14:23.919Z,7.17
2023-01-20T09:16:51.885Z,6.20
2023-01-20T09:19:19.737Z,6.20
2023-01-20T09:21:47.567Z,5.40
2023-01-20T09:24:15.654Z,5.10
2023-01-20T09:26:43.374Z,5.07
2023-01-20T09:29:14.110Z,5.50
2023-01-20T09:31:59.409Z,5.03
2023-01-20T09:34:29.494Z,4.93
2023-01-20T09:37:22.868Z,5.13
2023-01-20T09:40:09.066Z,5.57
2023-01-20T09:43:03.550Z,4.67
2023-01-20T09:46:10.217Z,4.25
2023-01-20T09:49:23.235Z,7.33
2023-01-20T09:52:44.368Z,4.77
2023-01-20T09:55:24.803Z,4.53
2023-01-20T09:58:31.535Z,5.07
2023-01-20T10:01:30.684Z,5.67
2023-01-20T10:04:12.218Z,4.53
2023-01-20T10:07:10.171Z,5.37
2023-01-20T10:09:54.691Z,5.60
2023-01-20T10:12:33.573Z,5.47
2023-01-20T10:15:16.783Z,4.77
2023-01-20T10:18:04.668Z,4.67
2023-01-20T10:20:58.662Z,5.37
2023-01-20T10:24:02.647Z,5.05
2023-01-20T10:26:44.747Z,5.40
2023-01-20T10:29:32.991Z,5.63
2023-01-20T10:32:05.996Z,5.70
2023-01-20T10:34:45.609Z,5.50
2023-01-20T10:37:15.408Z,6.03
2023-01-20T10:40:07.321Z,5.70
2023-01-20T10:42:35.163Z,5.97
2023-01-20T10:45:03.020Z,5.97
2023-01-20T10:48:04.088Z,6.20
2023-01-20T10:50:47.776Z,6.03
2023-01-20T10:53:44.779Z,5.63
2023-01-20T10:56:53.543Z,5.90
2023-01-20T10:59:31.948Z,6.20
2023-01-20T11:02:28.774Z,6.63
2023-01-20T11:05:02.185Z,6.17
2023-01-20T11:07:33.274Z,6.35
2023-01-20T11:10:26.928Z,6.17
2023-01-20T11:13:00.396Z,5.97
2023-01-20T11:15:43.244Z,6.35
2023-01-20T11:18:16.868Z,5.97
2023-01-20T11:20:52.491Z,6.65
2023-01-20T11:23:36.649Z,5.70
2023-01-20T11:26:22.493Z,5.32
2023-01-20T11:29:23.575Z,5.30
2023-01-20T11:31:55.446Z,4.63
2023-01-20T11:34:34.013Z,4.30
2023-01-20T11:37:21.898Z,3.80
2023-01-20T11:39:49.517Z,3.43
2023-01-20T11:42:42.181Z,3.53
2023-01-20T11:45:34.993Z,3.63
2023-01-20T11:48:15.973Z,3.57
2023-01-20T11:50:57.562Z,3.17
2023-01-20T11:53:26.501Z,3.53
2023-01-20T11:56:03.073Z,3.10
2023-01-20T11:58:52.754Z,3.47
2023-01-20T12:01:27.678Z,4.07
2023-01-20T12:04:24.249Z,4.30
2023-01-20T12:07:27.239Z,4.87
2023-01-20T12:10:06.097Z,4.60
2023-01-20T12:12:53.254Z,4.30
2023-01-20T12:15:28.049Z,3.77
2023-01-20T12:18:19.063Z,4.07
2023-01-20T12:20:57.730Z,3.10
2023-01-20T12:23:56.380Z,4.40
2023-01-20T12:26:25.185Z,3.90
2023-01-20T12:29:17.154Z,4.60
2023-01-20T12:31:49.034Z,4.40
2023-01-20T12:34:26.395Z,4.70
2023-01-20T12:37:16.800Z,4.83
2023-01-20T12:40:11.521Z,4.57
2023-01-20T12:46:11.802Z,3.53
2023-01-20T12:49:17.291Z,3.47
2023-01-20T12:52:15.168Z,3.17
2023-01-20T12:54:54.017Z,3.27
2023-01-20T12:57:48.615Z,2.63
2023-01-20T13:00:52.488Z,2.45
2023-01-20T13:03:40.494Z,3.20
2023-01-20T13:06:28.608Z,4.47
2023-01-20T13:09:21.035Z,3.37
2023-01-20T13:12:13.348Z,3.80
2023-01-20T13:14:54.630Z,2.67
2023-01-20T13:17:40.595Z,3.30
2023-01-20T13:20:25.355Z,3.33
2023-01-20T13:22:55.357Z,3.33
2023-01-20T13:25:24.663Z,3.87
2023-01-20T13:27:54.443Z,2.93
2023-01-20T13:30:40.326Z,3.10
2023-01-20T13:33:38.955Z,3.40
2023-01-20T13:36:24.535Z,5.73
2023-01-20T13:39:40.586Z,4.77
2023-01-20T13:42:37.138Z,4.50
2023-01-20T13:45:14.261Z,5.70
2023-01-20T13:48:01.388Z,5.13
2023-01-20T13:50:38.466Z,4.40
2023-01-20T13:53:15.088Z,4.87
2023-01-20T13:55:45.451Z,3.80
2023-01-20T13:58:31.510Z,5.17
2023-01-20T14:01:08.845Z,5.43
2023-01-20T14:03:38.964Z,5.33
2023-01-20T14:06:14.493Z,3.87
2023-01-20T14:08:48.567Z,3.65
2023-01-20T14:14:05.764Z,3.43
2023-01-20T14:16:36.256Z,3.30
2023-01-20T14:19:32.671Z,2.43
2023-01-20T14:22:04.068Z,2.93
2023-01-20T14:24:34.776Z,2.90
2023-01-20T14:27:08.145Z,3.30
2023-01-20T14:29:35.987Z,2.50
2023-01-20T14:32:26.153Z,2.57
2023-01-20T14:34:54.838Z,3.30
2023-01-20T14:37:37.923Z,2.30
2023-01-20T14:40:26.873Z,3.03
2023-01-20T14:43:00.367Z,2.40
2023-01-20T14:45:32.403Z,2.65
2023-01-20T14:48:02.661Z,2.50
2023-01-20T14:50:30.759Z,3.30
2023-01-20T14:52:58.567Z,2.47
2023-01-20T14:55:43.213Z,2.80
2023-01-20T14:58:18.608Z,2.80
2023-01-20T15:00:53.532Z,2.33
2023-01-20T15:03:30.855Z,2.73
2023-01-20T15:06:22.460Z,2.20
2023-01-20T15:09:05.528Z,2.30
2023-01-20T15:11:34.359Z,2.88
2023-01-20T15:14:02.072Z,3.00
2023-01-20T15:16:49.122Z,3.83
2023-01-20T15:19:19.905Z,2.83
2023-01-20T15:21:56.502Z,2.57
2023-01-20T15:24:32.323Z,4.13
2023-01-20T15:27:01.840Z,3.37
2023-01-20T15:29:33.886Z,3.87
2023-01-20T15:32:11.218Z,3.93
2023-01-20T15:34:39.052Z,4.10
2023-01-20T15:37:18.812Z,4.40
2023-01-20T15:39:47.597Z,3.70
2023-01-20T15:42:15.912Z,5.83
2023-01-20T15:44:43.625Z,5.20
2023-01-20T15:47:29.129Z,4.60
2023-01-20T15:49:57.897Z,4.03
2023-01-20T15:52:26.023Z,3.90
2023-01-20T15:54:53.709Z,2.63
2023-01-20T15:57:21.430Z,4.13
2023-01-20T15:59:51.335Z,5.03
2023-01-20T16:02:23.674Z,7.40
2023-01-20T16:04:51.459Z,8.37
2023-01-20T16:07:20.510Z,8.97
2023-01-20T16:09:48.929Z,11.70
2023-01-20T16:12:18.679Z,18.87
2023-01-20T16:14:46.523Z,10.60
2023-01-20T16:17:18.090Z,6.00
2023-01-20T16:19:45.813Z,6.67
2023-01-20T16:22:14.493Z,4.70
2023-01-20T16:24:42.477Z,3.70
2023-01-20T16:27:20.735Z,3.87
2023-01-20T16:29:49.302Z,3.87
2023-01-20T16:32:21.793Z,3.50
2023-01-20T16:34:50.143Z,3.90
2023-01-20T16:37:18.228Z,4.90
2023-01-20T16:39:46.190Z,6.57
2023-01-20T16:42:15.125Z,7.20
2023-01-20T16:44:42.951Z,6.20
2023-01-20T16:47:10.679Z,5.33
2023-01-20T16:49:38.999Z,4.80
2023-01-20T16:52:06.841Z,3.67
2023-01-20T16:54:34.567Z,3.57
2023-01-20T16:57:02.409Z,3.43
2023-01-20T16:59:30.367Z,4.53
2023-01-20T17:01:58.242Z,6.13
2023-01-20T17:04:25.936Z,4.87
2023-01-20T17:06:53.777Z,4.07
2023-01-20T17:09:21.616Z,5.83
2023-01-20T17:11:49.337Z,7.80
2023-01-20T17:14:17.178Z,10.93
2023-01-20T17:16:44.941Z,15.43
2023-01-20T17:19:13.168Z,9.37
2023-01-20T17:21:41.016Z,10.03
2023-01-20T17:24:11.079Z,15.73
2023-01-20T17:26:38.793Z,13.23
2023-01-20T17:29:07.160Z,8.83
2023-01-20T17:31:36.870Z,8.17
2023-01-20T17:34:06.404Z,5.47
2023-01-20T17:36:35.007Z,4.87
2023-01-20T17:39:05.206Z,4.70
2023-01-20T17:41:34.275Z,5.17
2023-01-20T17:44:04.051Z,7.47
2023-01-20T17:46:32.705Z,7.13
2023-01-20T17:49:01.969Z,7.37
2023-01-20T17:51:30.687Z,5.50
2023-01-20T17:54:01.229Z,4.30
2023-01-20T17:56:31.756Z,3.20
2023-01-20T17:58:59.622Z,3.83
2023-01-20T18:01:34.804Z,2.90
2023-01-20T18:04:05.112Z,3.50
2023-01-20T18:06:36.445Z,3.40
2023-01-20T18:09:08.119Z,4.83
2023-01-20T18:11:37.285Z,4.23
2023-01-20T18:14:06.803Z,3.03
2023-01-20T18:16:38.646Z,4.13
2023-01-20T18:19:07.057Z,4.20
2023-01-20T18:21:37.530Z,3.97
2023-01-20T18:24:07.650Z,3.93
2023-01-20T18:26:38.017Z,3.07
2023-01-20T18:29:16.586Z,4.73
2023-01-20T18:31:47.888Z,4.87
2023-01-20T18:34:15.956Z,7.27
2023-01-20T18:36:46.211Z,10.73
2023-01-20T18:39:23.271Z,15.10
2023-01-20T18:41:52.064Z,15.10
2023-01-20T18:44:20.749Z,13.23
2023-01-20T18:46:48.708Z,9.87
2023-01-20T18:49:17.513Z,8.73
2023-01-20T18:51:45.484Z,9.03
2023-01-20T18:54:17.559Z,8.90
2023-01-20T18:56:45.605Z,10.33
2023-01-20T18:59:14.288Z,9.87
2023-01-20T19:01:43.009Z,8.93
2023-01-20T19:04:12.497Z,6.53
2023-01-20T19:06:44.082Z,7.93
2023-01-20T19:09:12.770Z,7.03
2023-01-20T19:11:42.045Z,6.07
2023-01-20T19:14:14.421Z,7.43
2023-01-20T19:16:45.266Z,7.23
2023-01-20T19:19:13.746Z,8.23
2023-01-20T19:21:42.272Z,6.10
2023-01-20T19:24:17.665Z,3.63
2023-01-20T19:26:46.105Z,5.03
2023-01-20T19:29:17.087Z,4.10
2023-01-20T19:31:44.998Z,5.10
2023-01-20T19:34:13.118Z,2.90
2023-01-20T19:36:40.955Z,3.50
2023-01-20T19:39:08.701Z,4.90
2023-01-20T19:41:36.620Z,3.53
2023-01-20T19:44:06.716Z,3.90
2023-01-20T19:46:38.920Z,4.70
2023-01-20T19:49:07.399Z,3.80
2023-01-20T19:51:36.543Z,2.73
2023-01-20T19:54:05.578Z,3.17
2023-01-20T19:56:35.576Z,3.07
2023-01-20T19:59:05.987Z,4.07
2023-01-20T20:01:37.103Z,3.47
2023-01-20T20:04:12.930Z,2.63
2023-01-20T20:06:45.658Z,5.00
2023-01-20T20:09:23.505Z,3.40
2023-01-20T20:11:51.311Z,4.47
2023-01-20T20:14:22.052Z,3.37
2023-01-20T20:16:50.722Z,2.83
2023-01-20T20:19:19.672Z,3.00
2023-01-20T20:21:47.378Z,4.27
2023-01-20T20:24:18.078Z,4.63
2023-01-20T20:26:46.543Z,5.33
2023-01-20T20:29:18.588Z,5.10
2023-01-20T20:31:46.968Z,6.17
2023-01-20T20:34:18.613Z,4.93
2023-01-20T20:36:46.536Z,5.23
2023-01-20T20:39:18.120Z,4.40
2023-01-20T20:41:46.671Z,4.27
2023-01-20T20:44:14.636Z,6.67
2023-01-20T20:46:43.619Z,11.40
2023-01-20T20:49:15.766Z,9.80
2023-01-20T20:51:44.042Z,9.60
2023-01-20T20:54:14.028Z,6.33
2023-01-20T20:56:41.760Z,6.20
2023-01-20T20:59:09.955Z,5.47
2023-01-20T21:01:37.821Z,4.17
2023-01-20T21:04:05.901Z,5.33
2023-01-20T21:06:34.211Z,5.13
2023-01-20T21:09:01.932Z,5.30
2023-01-20T21:11:30.023Z,5.57
2023-01-20T21:13:57.980Z,5.63
2023-01-20T21:16:27.595Z,5.07
2023-01-20T21:18:56.672Z,5.60
2023-01-20T21:21:25.240Z,5.73
2023-01-20T21:23:58.591Z,6.43
2023-01-20T21:26:30.527Z,5.13
2023-01-20T21:29:01.995Z,6.40
2023-01-20T21:31:31.367Z,7.37
2023-01-20T21:34:00.567Z,6.23
2023-01-20T21:36:54.032Z,5.83
2023-01-20T21:39:21.781Z,7.73
2023-01-20T21:41:49.482Z,7.63
2023-01-20T21:44:29.583Z,7.30
2023-01-20T21:46:59.709Z,7.40
2023-01-20T21:49:46.615Z,6.87
2023-01-20T21:52:35.938Z,6.67
2023-01-20T21:55:05.572Z,6.00
2023-01-20T21:57:33.547Z,6.27
2023-01-20T22:00:04.256Z,5.93
2023-01-20T22:02:41.219Z,6.67
2023-01-20T22:05:09.298Z,8.33
2023-01-20T22:07:37.864Z,7.73
2023-01-20T22:10:06.190Z,8.70
2023-01-20T22:12:35.515Z,6.67
2023-01-20T22:15:04.153Z,6.37
2023-01-20T22:17:32.500Z,5.80
2023-01-20T22:20:00.197Z,5.63
2023-01-20T22:22:28.279Z,7.30
2023-01-20T22:24:55.999Z,11.27
2023-01-20T22:27:23.721Z,13.37
2023-01-20T22:29:51.443Z,22.03
2023-01-20T22:32:19.167Z,32.07
2023-01-20T22:34:46.888Z,16.13
2023-01-20T22:37:14.620Z,10.87
2023-01-20T22:39:42.451Z,8.10
2023-01-20T22:42:10.173Z,8.40
2023-01-20T22:44:38.017Z,7.33
2023-01-20T22:47:09.725Z,11.00
2023-01-20T22:49:37.540Z,10.10
2023-01-20T22:52:05.516Z,9.47
2023-01-20T22:54:33.229Z,7.17
2023-01-20T22:57:00.947Z,8.10
2023-01-20T22:59:28.793Z,9.37
2023-01-20T23:01:56.546Z,7.23
2023-01-20T23:04:24.481Z,7.73
2023-01-20T23:06:52.202Z,8.90
2023-01-20T23:09:20.158Z,6.77
2023-01-20T23:11:49.322Z,6.50
2023-01-20T23:14:17.051Z,5.83
2023-01-20T23:16:44.953Z,7.13
2023-01-20T23:19:12.741Z,6.47
2023-01-20T23:21:40.458Z,7.00
2023-01-20T23:24:09.548Z,6.47
2023-01-20T23:26:37.455Z,6.67
2023-01-20T23:29:05.323Z,6.50
2023-01-20T23:31:35.307Z,5.97
2023-01-20T23:34:03.400Z,6.03
2023-01-20T23:36:31.227Z,6.47
2023-01-20T23:38:58.952Z,5.83
2023-01-20T23:41:26.685Z,6.10
2023-01-20T23:43:54.393Z,5.60
2023-01-20T23:46:22.251Z,5.77
2023-01-20T23:48:49.962Z,6.37
2023-01-20T23:51:18.201Z,6.17
2023-01-20T23:53:46.129Z,6.10
2023-01-20T23:56:20.225Z,5.63
